sensor_id;sensor_type;location;lat;lon;timestamp;P1;durP1;ratioP1;P2;durP2;ratioP2
46080;SDS011;31821;51.880;-0.518;2022-11-18T00:01:12;4.70;;;1.50;;
46080;SDS011;31821;51.880;-0.518;2022-11-18T00:03:39;5.68;;;1.48;;
46080;SDS011;31821;51.880;-0.518;2022-11-18T00:06:06;4.03;;;1.15;;
46080;SDS011;31821;51.880;-0.518;2022-11-18T00:08:32;4.18;;;1.30;;
46080;SDS011;31821;51.880;-0.518;2022-11-18T00:11:03;4.00;;;1.20;;
46080;SDS011;31821;51.880;-0.518;2022-11-18T00:13:30;4.10;;;1.23;;
46080;SDS011;31821;51.880;-0.518;2022-11-18T00:16:14;4.13;;;1.25;;
46080;SDS011;31821;51.880;-0.518;2022-11-18T00:18:39;6.03;;;1.60;;
46080;SDS011;31821;51.880;-0.518;2022-11-18T00:21:06;4.65;;;1.13;;
46080;SDS011;31821;51.880;-0.518;2022-11-18T00:23:33;5.55;;;1.40;;
46080;SDS011;31821;51.880;-0.518;2022-11-18T00:26:02;6.22;;;1.35;;
46080;SDS011;31821;51.880;-0.518;2022-11-18T00:28:45;4.28;;;1.38;;
46080;SDS011;31821;51.880;-0.518;2022-11-18T00:31:12;2.88;;;1.20;;
46080;SDS011;31821;51.880;-0.518;2022-11-18T00:33:38;4.60;;;1.20;;
46080;SDS011;31821;51.880;-0.518;2022-11-18T00:36:05;2.35;;;1.00;;
46080;SDS011;31821;51.880;-0.518;2022-11-18T00:38:32;3.83;;;1.40;;
46080;SDS011;31821;51.880;-0.518;2022-11-18T00:41:01;5.50;;;1.60;;
46080;SDS011;31821;51.880;-0.518;2022-11-18T00:43:31;5.97;;;1.80;;
46080;SDS011;31821;51.880;-0.518;2022-11-18T00:45:58;3.35;;;1.30;;
46080;SDS011;31821;51.880;-0.518;2022-11-18T00:48:23;4.88;;;1.30;;
46080;SDS011;31821;51.880;-0.518;2022-11-18T00:50:50;3.15;;;1.13;;
46080;SDS011;31821;51.880;-0.518;2022-11-18T00:53:17;3.28;;;1.10;;
46080;SDS011;31821;51.880;-0.518;2022-11-18T00:55:43;7.22;;;1.55;;
46080;SDS011;31821;51.880;-0.518;2022-11-18T00:58:09;5.40;;;1.10;;
46080;SDS011;31821;51.880;-0.518;2022-11-18T01:00:39;3.85;;;1.42;;
46080;SDS011;31821;51.880;-0.518;2022-11-18T01:03:12;4.88;;;1.30;;
46080;SDS011;31821;51.880;-0.518;2022-11-18T01:05:38;4.68;;;1.50;;
46080;SDS011;31821;51.880;-0.518;2022-11-18T01:08:05;5.05;;;1.10;;
46080;SDS011;31821;51.880;-0.518;2022-11-18T01:10:32;5.47;;;1.33;;
46080;SDS011;31821;51.880;-0.518;2022-11-18T01:12:58;2.30;;;0.95;;
46080;SDS011;31821;51.880;-0.518;2022-11-18T01:15:43;6.03;;;1.58;;
46080;SDS011;31821;51.880;-0.518;2022-11-18T01:18:11;3.90;;;1.20;;
46080;SDS011;31821;51.880;-0.518;2022-11-18T01:20:36;6.00;;;1.58;;
46080;SDS011;31821;51.880;-0.518;2022-11-18T01:23:02;3.00;;;1.40;;
46080;SDS011;31821;51.880;-0.518;2022-11-18T01:25:28;4.28;;;1.60;;
46080;SDS011;31821;51.880;-0.518;2022-11-18T01:27:54;3.00;;;1.20;;
46080;SDS011;31821;51.880;-0.518;2022-11-18T01:30:20;4.60;;;1.40;;
46080;SDS011;31821;51.880;-0.518;2022-11-18T01:32:45;5.13;;;1.40;;
46080;SDS011;31821;51.880;-0.518;2022-11-18T01:35:11;3.75;;;1.20;;
46080;SDS011;31821;51.880;-0.518;2022-11-18T01:37:37;9.00;;;1.60;;
46080;SDS011;31821;51.880;-0.518;2022-11-18T01:40:06;4.30;;;1.20;;
46080;SDS011;31821;51.880;-0.518;2022-11-18T01:42:32;6.75;;;1.40;;
46080;SDS011;31821;51.880;-0.518;2022-11-18T01:45:14;3.60;;;1.00;;
46080;SDS011;31821;51.880;-0.518;2022-11-18T01:47:50;5.90;;;1.33;;
46080;SDS011;31821;51.880;-0.518;2022-11-18T01:50:22;3.42;;;1.20;;
46080;SDS011;31821;51.880;-0.518;2022-11-18T01:52:49;6.20;;;1.40;;
46080;SDS011;31821;51.880;-0.518;2022-11-18T01:55:22;4.57;;;1.45;;
46080;SDS011;31821;51.880;-0.518;2022-11-18T01:57:50;5.53;;;1.40;;
46080;SDS011;31821;51.880;-0.518;2022-11-18T02:00:22;4.63;;;1.20;;
46080;SDS011;31821;51.880;-0.518;2022-11-18T02:02:47;4.55;;;1.20;;
46080;SDS011;31821;51.880;-0.518;2022-11-18T02:05:13;3.65;;;1.08;;
46080;SDS011;31821;51.880;-0.518;2022-11-18T02:07:40;5.72;;;1.35;;
46080;SDS011;31821;51.880;-0.518;2022-11-18T02:10:08;6.70;;;2.00;;
46080;SDS011;31821;51.880;-0.518;2022-11-18T02:12:41;5.55;;;1.60;;
46080;SDS011;31821;51.880;-0.518;2022-11-18T02:15:06;4.22;;;1.10;;
46080;SDS011;31821;51.880;-0.518;2022-11-18T02:17:39;3.13;;;1.40;;
46080;SDS011;31821;51.880;-0.518;2022-11-18T02:20:21;2.30;;;0.90;;
46080;SDS011;31821;51.880;-0.518;2022-11-18T02:29:18;5.45;;;1.92;;
46080;SDS011;31821;51.880;-0.518;2022-11-18T02:40:06;3.75;;;1.23;;
46080;SDS011;31821;51.880;-0.518;2022-11-18T02:42:38;3.47;;;1.40;;
46080;SDS011;31821;51.880;-0.518;2022-11-18T02:45:09;5.53;;;1.38;;
46080;SDS011;31821;51.880;-0.518;2022-11-18T02:47:38;4.22;;;1.35;;
46080;SDS011;31821;51.880;-0.518;2022-11-18T02:50:10;3.70;;;1.10;;
46080;SDS011;31821;51.880;-0.518;2022-11-18T02:52:39;5.78;;;1.40;;
46080;SDS011;31821;51.880;-0.518;2022-11-18T02:55:08;4.35;;;1.20;;
46080;SDS011;31821;51.880;-0.518;2022-11-18T02:57:36;4.90;;;1.48;;
46080;SDS011;31821;51.880;-0.518;2022-11-18T03:00:04;7.32;;;1.50;;
46080;SDS011;31821;51.880;-0.518;2022-11-18T03:02:40;4.93;;;1.38;;
46080;SDS011;31821;51.880;-0.518;2022-11-18T03:05:08;4.75;;;1.20;;
46080;SDS011;31821;51.880;-0.518;2022-11-18T03:07:37;3.17;;;1.10;;
46080;SDS011;31821;51.880;-0.518;2022-11-18T03:10:08;4.53;;;1.30;;
46080;SDS011;31821;51.880;-0.518;2022-11-18T03:15:13;5.13;;;1.40;;
46080;SDS011;31821;51.880;-0.518;2022-11-18T03:17:46;2.78;;;1.00;;
46080;SDS011;31821;51.880;-0.518;2022-11-18T03:20:21;4.85;;;1.48;;
46080;SDS011;31821;51.880;-0.518;2022-11-18T03:33:32;6.47;;;1.30;;
46080;SDS011;31821;51.880;-0.518;2022-11-18T03:36:02;5.95;;;1.30;;
46080;SDS011;31821;51.880;-0.518;2022-11-18T03:38:33;4.10;;;1.13;;
46080;SDS011;31821;51.880;-0.518;2022-11-18T03:41:03;6.40;;;1.48;;
46080;SDS011;31821;51.880;-0.518;2022-11-18T03:43:33;4.68;;;1.30;;
46080;SDS011;31821;51.880;-0.518;2022-11-18T03:46:14;4.50;;;1.30;;
46080;SDS011;31821;51.880;-0.518;2022-11-18T03:48:44;3.53;;;1.35;;
46080;SDS011;31821;51.880;-0.518;2022-11-18T03:51:16;5.45;;;1.58;;
46080;SDS011;31821;51.880;-0.518;2022-11-18T03:53:48;2.78;;;1.00;;
46080;SDS011;31821;51.880;-0.518;2022-11-18T03:56:36;4.72;;;1.40;;
46080;SDS011;31821;51.880;-0.518;2022-11-18T03:59:11;3.83;;;1.10;;
46080;SDS011;31821;51.880;-0.518;2022-11-18T04:01:43;5.95;;;1.38;;
46080;SDS011;31821;51.880;-0.518;2022-11-18T04:04:14;3.97;;;1.30;;
46080;SDS011;31821;51.880;-0.518;2022-11-18T04:06:43;3.72;;;1.30;;
46080;SDS011;31821;51.880;-0.518;2022-11-18T04:09:21;3.03;;;1.00;;
46080;SDS011;31821;51.880;-0.518;2022-11-18T04:11:57;6.25;;;1.20;;
46080;SDS011;31821;51.880;-0.518;2022-11-18T04:14:30;4.68;;;1.17;;
46080;SDS011;31821;51.880;-0.518;2022-11-18T04:16:59;5.07;;;1.10;;
46080;SDS011;31821;51.880;-0.518;2022-11-18T04:19:24;3.83;;;1.13;;
46080;SDS011;31821;51.880;-0.518;2022-11-18T04:21:50;3.58;;;1.10;;
46080;SDS011;31821;51.880;-0.518;2022-11-18T04:24:15;4.07;;;1.17;;
46080;SDS011;31821;51.880;-0.518;2022-11-18T04:26:41;3.92;;;1.08;;
46080;SDS011;31821;51.880;-0.518;2022-11-18T04:29:07;6.28;;;1.10;;
46080;SDS011;31821;51.880;-0.518;2022-11-18T04:31:32;5.70;;;1.40;;
46080;SDS011;31821;51.880;-0.518;2022-11-18T04:33:58;4.03;;;1.10;;
46080;SDS011;31821;51.880;-0.518;2022-11-18T04:36:23;6.20;;;1.00;;
46080;SDS011;31821;51.880;-0.518;2022-11-18T04:38:49;5.03;;;1.20;;
46080;SDS011;31821;51.880;-0.518;2022-11-18T04:41:14;2.17;;;1.00;;
46080;SDS011;31821;51.880;-0.518;2022-11-18T04:43:40;6.50;;;1.67;;
46080;SDS011;31821;51.880;-0.518;2022-11-18T04:46:06;3.65;;;1.08;;
46080;SDS011;31821;51.880;-0.518;2022-11-18T04:48:31;2.78;;;1.10;;
46080;SDS011;31821;51.880;-0.518;2022-11-18T04:50:57;6.00;;;1.45;;
46080;SDS011;31821;51.880;-0.518;2022-11-18T04:53:26;3.00;;;1.35;;
46080;SDS011;31821;51.880;-0.518;2022-11-18T04:55:52;4.95;;;1.00;;
46080;SDS011;31821;51.880;-0.518;2022-11-18T04:58:17;4.55;;;1.35;;
46080;SDS011;31821;51.880;-0.518;2022-11-18T05:00:42;3.88;;;1.10;;
46080;SDS011;31821;51.880;-0.518;2022-11-18T05:03:08;4.00;;;1.30;;
46080;SDS011;31821;51.880;-0.518;2022-11-18T05:05:33;2.45;;;0.90;;
46080;SDS011;31821;51.880;-0.518;2022-11-18T05:07:59;2.72;;;0.88;;
46080;SDS011;31821;51.880;-0.518;2022-11-18T05:10:24;4.47;;;1.27;;
46080;SDS011;31821;51.880;-0.518;2022-11-18T05:12:50;3.20;;;1.10;;
46080;SDS011;31821;51.880;-0.518;2022-11-18T05:15:20;2.45;;;1.00;;
46080;SDS011;31821;51.880;-0.518;2022-11-18T05:17:48;5.53;;;1.30;;
46080;SDS011;31821;51.880;-0.518;2022-11-18T05:20:13;3.65;;;1.52;;
46080;SDS011;31821;51.880;-0.518;2022-11-18T05:22:39;2.97;;;0.82;;
46080;SDS011;31821;51.880;-0.518;2022-11-18T05:25:05;3.33;;;1.00;;
46080;SDS011;31821;51.880;-0.518;2022-11-18T05:27:31;2.45;;;0.90;;
46080;SDS011;31821;51.880;-0.518;2022-11-18T05:29:57;2.38;;;0.88;;
46080;SDS011;31821;51.880;-0.518;2022-11-18T05:32:23;3.97;;;1.02;;
46080;SDS011;31821;51.880;-0.518;2022-11-18T05:34:48;6.38;;;1.00;;
46080;SDS011;31821;51.880;-0.518;2022-11-18T05:37:14;4.25;;;1.00;;
46080;SDS011;31821;51.880;-0.518;2022-11-18T05:39:39;6.25;;;1.02;;
46080;SDS011;31821;51.880;-0.518;2022-11-18T05:42:05;4.10;;;1.10;;
46080;SDS011;31821;51.880;-0.518;2022-11-18T05:44:49;3.42;;;1.00;;
46080;SDS011;31821;51.880;-0.518;2022-11-18T05:47:16;4.55;;;1.05;;
46080;SDS011;31821;51.880;-0.518;2022-11-18T05:49:42;4.85;;;1.50;;
46080;SDS011;31821;51.880;-0.518;2022-11-18T05:52:08;4.70;;;1.30;;
46080;SDS011;31821;51.880;-0.518;2022-11-18T05:54:33;3.55;;;1.00;;
46080;SDS011;31821;51.880;-0.518;2022-11-18T05:57:02;5.57;;;1.10;;
46080;SDS011;31821;51.880;-0.518;2022-11-18T05:59:28;4.63;;;1.00;;
46080;SDS011;31821;51.880;-0.518;2022-11-18T06:02:00;3.85;;;1.10;;
46080;SDS011;31821;51.880;-0.518;2022-11-18T06:07:48;3.45;;;1.00;;
46080;SDS011;31821;51.880;-0.518;2022-11-18T06:10:31;4.53;;;1.17;;
46080;SDS011;31821;51.880;-0.518;2022-11-18T06:13:01;2.72;;;1.00;;
46080;SDS011;31821;51.880;-0.518;2022-11-18T06:15:40;4.95;;;1.00;;
46080;SDS011;31821;51.880;-0.518;2022-11-18T06:18:11;4.20;;;1.08;;
46080;SDS011;31821;51.880;-0.518;2022-11-18T06:20:44;6.03;;;1.00;;
46080;SDS011;31821;51.880;-0.518;2022-11-18T06:23:10;2.85;;;0.90;;
46080;SDS011;31821;51.880;-0.518;2022-11-18T06:25:37;2.45;;;0.93;;
46080;SDS011;31821;51.880;-0.518;2022-11-18T06:28:04;3.55;;;1.20;;
46080;SDS011;31821;51.880;-0.518;2022-11-18T06:30:29;7.22;;;1.05;;
46080;SDS011;31821;51.880;-0.518;2022-11-18T06:32:55;3.97;;;1.10;;
46080;SDS011;31821;51.880;-0.518;2022-11-18T06:35:21;2.05;;;1.10;;
46080;SDS011;31821;51.880;-0.518;2022-11-18T06:37:46;2.92;;;1.10;;
46080;SDS011;31821;51.880;-0.518;2022-11-18T06:40:12;4.63;;;1.50;;
46080;SDS011;31821;51.880;-0.518;2022-11-18T06:42:38;3.78;;;1.27;;
46080;SDS011;31821;51.880;-0.518;2022-11-18T06:45:22;5.35;;;1.23;;
46080;SDS011;31821;51.880;-0.518;2022-11-18T06:47:47;4.57;;;1.10;;
46080;SDS011;31821;51.880;-0.518;2022-11-18T06:50:13;3.30;;;1.30;;
46080;SDS011;31821;51.880;-0.518;2022-11-18T06:52:38;7.43;;;1.40;;
46080;SDS011;31821;51.880;-0.518;2022-11-18T06:55:04;5.95;;;1.40;;
46080;SDS011;31821;51.880;-0.518;2022-11-18T06:57:35;3.63;;;1.23;;
46080;SDS011;31821;51.880;-0.518;2022-11-18T07:00:01;3.47;;;1.25;;
46080;SDS011;31821;51.880;-0.518;2022-11-18T07:02:27;3.92;;;1.23;;
46080;SDS011;31821;51.880;-0.518;2022-11-18T07:04:53;4.13;;;1.17;;
46080;SDS011;31821;51.880;-0.518;2022-11-18T07:07:18;4.57;;;1.38;;
46080;SDS011;31821;51.880;-0.518;2022-11-18T07:09:43;4.00;;;1.20;;
46080;SDS011;31821;51.880;-0.518;2022-11-18T07:12:09;4.75;;;1.10;;
46080;SDS011;31821;51.880;-0.518;2022-11-18T07:14:34;4.70;;;1.10;;
46080;SDS011;31821;51.880;-0.518;2022-11-18T07:17:00;5.15;;;1.40;;
46080;SDS011;31821;51.880;-0.518;2022-11-18T07:19:25;3.08;;;0.90;;
46080;SDS011;31821;51.880;-0.518;2022-11-18T07:21:51;3.60;;;1.00;;
46080;SDS011;31821;51.880;-0.518;2022-11-18T07:24:16;3.25;;;1.13;;
46080;SDS011;31821;51.880;-0.518;2022-11-18T07:26:42;4.75;;;1.33;;
46080;SDS011;31821;51.880;-0.518;2022-11-18T07:29:07;5.25;;;1.20;;
46080;SDS011;31821;51.880;-0.518;2022-11-18T07:31:34;3.35;;;1.08;;
46080;SDS011;31821;51.880;-0.518;2022-11-18T07:34:01;5.07;;;1.30;;
46080;SDS011;31821;51.880;-0.518;2022-11-18T07:36:27;3.30;;;1.10;;
46080;SDS011;31821;51.880;-0.518;2022-11-18T07:38:54;4.90;;;1.40;;
46080;SDS011;31821;51.880;-0.518;2022-11-18T07:41:23;3.38;;;0.90;;
46080;SDS011;31821;51.880;-0.518;2022-11-18T07:43:51;3.47;;;1.10;;
46080;SDS011;31821;51.880;-0.518;2022-11-18T07:48:45;4.00;;;1.08;;
46080;SDS011;31821;51.880;-0.518;2022-11-18T07:51:13;3.03;;;0.95;;
46080;SDS011;31821;51.880;-0.518;2022-11-18T07:53:40;4.72;;;1.00;;
46080;SDS011;31821;51.880;-0.518;2022-11-18T07:56:06;5.50;;;1.30;;
46080;SDS011;31821;51.880;-0.518;2022-11-18T07:58:33;4.00;;;1.10;;
46080;SDS011;31821;51.880;-0.518;2022-11-18T08:01:05;5.63;;;1.33;;
46080;SDS011;31821;51.880;-0.518;2022-11-18T08:03:35;3.38;;;1.02;;
46080;SDS011;31821;51.880;-0.518;2022-11-18T08:06:00;2.75;;;1.00;;
46080;SDS011;31821;51.880;-0.518;2022-11-18T08:08:27;4.72;;;1.40;;
46080;SDS011;31821;51.880;-0.518;2022-11-18T08:10:56;3.97;;;1.30;;
46080;SDS011;31821;51.880;-0.518;2022-11-18T08:13:23;3.45;;;1.17;;
46080;SDS011;31821;51.880;-0.518;2022-11-18T08:15:49;7.28;;;1.10;;
46080;SDS011;31821;51.880;-0.518;2022-11-18T08:18:14;3.10;;;1.13;;
46080;SDS011;31821;51.880;-0.518;2022-11-18T08:20:43;2.63;;;1.08;;
46080;SDS011;31821;51.880;-0.518;2022-11-18T08:23:11;4.68;;;1.30;;
46080;SDS011;31821;51.880;-0.518;2022-11-18T08:25:38;4.55;;;1.30;;
46080;SDS011;31821;51.880;-0.518;2022-11-18T08:28:04;6.45;;;1.40;;
46080;SDS011;31821;51.880;-0.518;2022-11-18T08:30:31;3.42;;;1.25;;
46080;SDS011;31821;51.880;-0.518;2022-11-18T08:32:57;6.40;;;1.60;;
46080;SDS011;31821;51.880;-0.518;2022-11-18T08:35:24;4.50;;;1.23;;
46080;SDS011;31821;51.880;-0.518;2022-11-18T08:37:50;3.58;;;1.50;;
46080;SDS011;31821;51.880;-0.518;2022-11-18T08:40:16;4.45;;;1.20;;
46080;SDS011;31821;51.880;-0.518;2022-11-18T08:42:41;3.88;;;1.20;;
46080;SDS011;31821;51.880;-0.518;2022-11-18T08:45:07;2.95;;;1.00;;
46080;SDS011;31821;51.880;-0.518;2022-11-18T08:47:33;5.40;;;1.30;;
46080;SDS011;31821;51.880;-0.518;2022-11-18T08:49:59;6.55;;;1.10;;
46080;SDS011;31821;51.880;-0.518;2022-11-18T08:52:24;4.07;;;1.27;;
46080;SDS011;31821;51.880;-0.518;2022-11-18T08:54:50;2.70;;;1.08;;
46080;SDS011;31821;51.880;-0.518;2022-11-18T08:57:16;3.90;;;0.90;;
46080;SDS011;31821;51.880;-0.518;2022-11-18T08:59:41;4.03;;;1.10;;
46080;SDS011;31821;51.880;-0.518;2022-11-18T09:02:17;4.28;;;0.95;;
46080;SDS011;31821;51.880;-0.518;2022-11-18T09:04:47;2.85;;;1.10;;
46080;SDS011;31821;51.880;-0.518;2022-11-18T09:07:15;4.90;;;1.10;;
46080;SDS011;31821;51.880;-0.518;2022-11-18T09:09:41;3.10;;;1.00;;
46080;SDS011;31821;51.880;-0.518;2022-11-18T09:12:06;4.90;;;1.00;;
46080;SDS011;31821;51.880;-0.518;2022-11-18T09:14:33;3.28;;;1.02;;
46080;SDS011;31821;51.880;-0.518;2022-11-18T09:16:59;3.90;;;1.00;;
46080;SDS011;31821;51.880;-0.518;2022-11-18T09:19:24;3.08;;;1.00;;
46080;SDS011;31821;51.880;-0.518;2022-11-18T09:21:50;3.78;;;1.20;;
46080;SDS011;31821;51.880;-0.518;2022-11-18T09:24:15;3.22;;;1.10;;
46080;SDS011;31821;51.880;-0.518;2022-11-18T09:26:41;4.43;;;1.10;;
46080;SDS011;31821;51.880;-0.518;2022-11-18T09:29:07;3.47;;;1.15;;
46080;SDS011;31821;51.880;-0.518;2022-11-18T09:31:32;3.25;;;1.05;;
46080;SDS011;31821;51.880;-0.518;2022-11-18T09:33:58;4.38;;;1.02;;
46080;SDS011;31821;51.880;-0.518;2022-11-18T09:36:24;4.10;;;1.20;;
46080;SDS011;31821;51.880;-0.518;2022-11-18T09:38:50;5.55;;;1.30;;
46080;SDS011;31821;51.880;-0.518;2022-11-18T09:41:27;3.20;;;0.90;;
46080;SDS011;31821;51.880;-0.518;2022-11-18T09:44:20;4.05;;;1.13;;
46080;SDS011;31821;51.880;-0.518;2022-11-18T09:47:24;2.40;;;0.80;;
46080;SDS011;31821;51.880;-0.518;2022-11-18T09:50:00;5.05;;;1.17;;
46080;SDS011;31821;51.880;-0.518;2022-11-18T09:55:14;3.13;;;1.23;;
46080;SDS011;31821;51.880;-0.518;2022-11-18T09:57:45;3.33;;;0.98;;
46080;SDS011;31821;51.880;-0.518;2022-11-18T10:00:20;2.17;;;0.90;;
46080;SDS011;31821;51.880;-0.518;2022-11-18T10:02:54;4.28;;;1.10;;
46080;SDS011;31821;51.880;-0.518;2022-11-18T10:05:27;3.05;;;0.90;;
46080;SDS011;31821;51.880;-0.518;2022-11-18T10:07:58;3.53;;;0.82;;
46080;SDS011;31821;51.880;-0.518;2022-11-18T10:21:56;3.25;;;0.80;;
46080;SDS011;31821;51.880;-0.518;2022-11-18T10:24:24;1.55;;;0.80;;
46080;SDS011;31821;51.880;-0.518;2022-11-18T10:26:55;3.17;;;1.00;;
46080;SDS011;31821;51.880;-0.518;2022-11-18T10:29:22;3.35;;;0.98;;
46080;SDS011;31821;51.880;-0.518;2022-11-18T10:34:18;3.95;;;1.00;;
46080;SDS011;31821;51.880;-0.518;2022-11-18T10:36:56;3.20;;;1.00;;
46080;SDS011;31821;51.880;-0.518;2022-11-18T10:39:27;2.50;;;0.98;;
46080;SDS011;31821;51.880;-0.518;2022-11-18T10:41:55;4.78;;;1.45;;
46080;SDS011;31821;51.880;-0.518;2022-11-18T10:44:31;2.83;;;1.13;;
46080;SDS011;31821;51.880;-0.518;2022-11-18T10:49:48;2.88;;;1.00;;
46080;SDS011;31821;51.880;-0.518;2022-11-18T10:52:14;3.40;;;1.10;;
46080;SDS011;31821;51.880;-0.518;2022-11-18T10:54:40;3.55;;;1.00;;
46080;SDS011;31821;51.880;-0.518;2022-11-18T11:04:51;4.50;;;0.98;;
46080;SDS011;31821;51.880;-0.518;2022-11-18T11:12:35;4.35;;;1.20;;
46080;SDS011;31821;51.880;-0.518;2022-11-18T11:15:04;3.25;;;1.10;;
46080;SDS011;31821;51.880;-0.518;2022-11-18T11:17:35;5.90;;;1.10;;
46080;SDS011;31821;51.880;-0.518;2022-11-18T11:20:06;3.28;;;0.95;;
46080;SDS011;31821;51.880;-0.518;2022-11-18T11:22:42;3.60;;;1.00;;
46080;SDS011;31821;51.880;-0.518;2022-11-18T11:25:12;2.13;;;0.80;;
46080;SDS011;31821;51.880;-0.518;2022-11-18T11:27:42;2.38;;;0.90;;
46080;SDS011;31821;51.880;-0.518;2022-11-18T11:41:29;2.25;;;0.80;;
46080;SDS011;31821;51.880;-0.518;2022-11-18T11:44:02;3.22;;;1.00;;
46080;SDS011;31821;51.880;-0.518;2022-11-18T11:52:27;3.75;;;1.02;;
46080;SDS011;31821;51.880;-0.518;2022-11-18T12:00:30;2.58;;;0.90;;
46080;SDS011;31821;51.880;-0.518;2022-11-18T12:03:01;2.00;;;0.80;;
46080;SDS011;31821;51.880;-0.518;2022-11-18T12:05:32;2.83;;;0.90;;
46080;SDS011;31821;51.880;-0.518;2022-11-18T12:08:05;2.65;;;1.05;;
46080;SDS011;31821;51.880;-0.518;2022-11-18T12:10:50;2.75;;;0.90;;
46080;SDS011;31821;51.880;-0.518;2022-11-18T12:16:13;3.10;;;1.10;;
46080;SDS011;31821;51.880;-0.518;2022-11-18T12:27:01;3.22;;;1.10;;
46080;SDS011;31821;51.880;-0.518;2022-11-18T12:30:01;3.22;;;1.25;;
46080;SDS011;31821;51.880;-0.518;2022-11-18T12:32:37;3.42;;;1.17;;
46080;SDS011;31821;51.880;-0.518;2022-11-18T12:52:01;2.22;;;0.93;;
46080;SDS011;31821;51.880;-0.518;2022-11-18T12:54:35;2.78;;;0.80;;
46080;SDS011;31821;51.880;-0.518;2022-11-18T12:57:21;2.80;;;0.90;;
46080;SDS011;31821;51.880;-0.518;2022-11-18T12:59:48;2.67;;;0.60;;
46080;SDS011;31821;51.880;-0.518;2022-11-18T13:02:18;2.45;;;0.90;;
46080;SDS011;31821;51.880;-0.518;2022-11-18T13:08:10;2.08;;;0.63;;
46080;SDS011;31821;51.880;-0.518;2022-11-18T13:13:12;2.75;;;0.80;;
46080;SDS011;31821;51.880;-0.518;2022-11-18T13:15:47;2.63;;;0.80;;
46080;SDS011;31821;51.880;-0.518;2022-11-18T13:18:31;2.13;;;0.70;;
46080;SDS011;31821;51.880;-0.518;2022-11-18T13:20:58;3.15;;;0.65;;
46080;SDS011;31821;51.880;-0.518;2022-11-18T13:23:45;1.83;;;0.60;;
46080;SDS011;31821;51.880;-0.518;2022-11-18T13:26:26;2.72;;;0.88;;
46080;SDS011;31821;51.880;-0.518;2022-11-18T13:34:44;3.40;;;0.75;;
46080;SDS011;31821;51.880;-0.518;2022-11-18T13:37:16;3.38;;;1.00;;
46080;SDS011;31821;51.880;-0.518;2022-11-18T13:39:53;6.07;;;1.38;;
46080;SDS011;31821;51.880;-0.518;2022-11-18T13:42:23;2.95;;;1.20;;
46080;SDS011;31821;51.880;-0.518;2022-11-18T13:50:10;4.00;;;1.10;;
46080;SDS011;31821;51.880;-0.518;2022-11-18T13:52:41;1.80;;;0.70;;
46080;SDS011;31821;51.880;-0.518;2022-11-18T13:55:15;2.35;;;0.68;;
46080;SDS011;31821;51.880;-0.518;2022-11-18T13:57:46;1.88;;;0.52;;
46080;SDS011;31821;51.880;-0.518;2022-11-18T14:00:33;2.55;;;0.73;;
46080;SDS011;31821;51.880;-0.518;2022-11-18T14:03:01;2.13;;;0.52;;
46080;SDS011;31821;51.880;-0.518;2022-11-18T14:05:30;3.00;;;0.60;;
46080;SDS011;31821;51.880;-0.518;2022-11-18T14:08:00;2.63;;;0.68;;
46080;SDS011;31821;51.880;-0.518;2022-11-18T14:10:39;3.33;;;0.93;;
46080;SDS011;31821;51.880;-0.518;2022-11-18T14:13:22;3.05;;;0.88;;
46080;SDS011;31821;51.880;-0.518;2022-11-18T14:15:48;2.75;;;0.60;;
46080;SDS011;31821;51.880;-0.518;2022-11-18T14:18:33;2.40;;;0.50;;
46080;SDS011;31821;51.880;-0.518;2022-11-18T14:21:02;1.52;;;0.60;;
46080;SDS011;31821;51.880;-0.518;2022-11-18T14:23:29;2.90;;;0.70;;
46080;SDS011;31821;51.880;-0.518;2022-11-18T14:25:57;1.90;;;0.82;;
46080;SDS011;31821;51.880;-0.518;2022-11-18T14:30:57;1.88;;;0.60;;
46080;SDS011;31821;51.880;-0.518;2022-11-18T14:38:23;2.17;;;0.60;;
46080;SDS011;31821;51.880;-0.518;2022-11-18T14:40:55;2.58;;;0.60;;
46080;SDS011;31821;51.880;-0.518;2022-11-18T14:43:21;3.28;;;0.73;;
46080;SDS011;31821;51.880;-0.518;2022-11-18T14:45:47;2.15;;;0.70;;
46080;SDS011;31821;51.880;-0.518;2022-11-18T14:48:14;1.48;;;0.60;;
46080;SDS011;31821;51.880;-0.518;2022-11-18T14:50:41;1.75;;;0.50;;
46080;SDS011;31821;51.880;-0.518;2022-11-18T14:53:08;3.60;;;0.80;;
46080;SDS011;31821;51.880;-0.518;2022-11-18T14:55:36;1.35;;;0.70;;
46080;SDS011;31821;51.880;-0.518;2022-11-18T14:58:02;1.77;;;0.60;;
46080;SDS011;31821;51.880;-0.518;2022-11-18T15:00:27;0.95;;;0.60;;
46080;SDS011;31821;51.880;-0.518;2022-11-18T15:02:53;1.23;;;0.63;;
46080;SDS011;31821;51.880;-0.518;2022-11-18T15:05:18;1.92;;;0.60;;
46080;SDS011;31821;51.880;-0.518;2022-11-18T15:07:44;2.78;;;0.63;;
46080;SDS011;31821;51.880;-0.518;2022-11-18T15:10:11;2.65;;;0.65;;
46080;SDS011;31821;51.880;-0.518;2022-11-18T15:12:40;1.45;;;0.85;;
46080;SDS011;31821;51.880;-0.518;2022-11-18T15:15:06;2.88;;;0.98;;
46080;SDS011;31821;51.880;-0.518;2022-11-18T15:17:32;3.25;;;0.80;;
46080;SDS011;31821;51.880;-0.518;2022-11-18T15:19:58;2.05;;;0.60;;
46080;SDS011;31821;51.880;-0.518;2022-11-18T15:22:24;2.65;;;0.80;;
46080;SDS011;31821;51.880;-0.518;2022-11-18T15:24:49;1.70;;;0.55;;
46080;SDS011;31821;51.880;-0.518;2022-11-18T15:27:15;2.63;;;0.60;;
46080;SDS011;31821;51.880;-0.518;2022-11-18T15:29:40;2.88;;;1.55;;
46080;SDS011;31821;51.880;-0.518;2022-11-18T15:32:06;2.78;;;0.60;;
46080;SDS011;31821;51.880;-0.518;2022-11-18T15:34:32;1.67;;;0.80;;
46080;SDS011;31821;51.880;-0.518;2022-11-18T15:36:57;2.22;;;0.60;;
46080;SDS011;31821;51.880;-0.518;2022-11-18T15:39:23;1.92;;;0.68;;
46080;SDS011;31821;51.880;-0.518;2022-11-18T15:41:48;3.20;;;0.73;;
46080;SDS011;31821;51.880;-0.518;2022-11-18T15:44:14;1.40;;;0.73;;
46080;SDS011;31821;51.880;-0.518;2022-11-18T15:46:39;3.53;;;0.90;;
46080;SDS011;31821;51.880;-0.518;2022-11-18T15:49:05;4.03;;;0.90;;
46080;SDS011;31821;51.880;-0.518;2022-11-18T15:51:31;1.63;;;0.55;;
46080;SDS011;31821;51.880;-0.518;2022-11-18T15:53:58;2.70;;;0.60;;
46080;SDS011;31821;51.880;-0.518;2022-11-18T15:56:24;3.78;;;0.65;;
46080;SDS011;31821;51.880;-0.518;2022-11-18T16:01:24;4.68;;;1.00;;
46080;SDS011;31821;51.880;-0.518;2022-11-18T16:03:51;2.13;;;0.80;;
46080;SDS011;31821;51.880;-0.518;2022-11-18T16:06:16;2.50;;;0.82;;
46080;SDS011;31821;51.880;-0.518;2022-11-18T16:08:42;5.57;;;1.30;;
46080;SDS011;31821;51.880;-0.518;2022-11-18T16:11:09;5.18;;;1.50;;
46080;SDS011;31821;51.880;-0.518;2022-11-18T16:14:05;5.13;;;1.95;;
46080;SDS011;31821;51.880;-0.518;2022-11-18T16:16:32;3.47;;;0.95;;
46080;SDS011;31821;51.880;-0.518;2022-11-18T16:18:59;2.83;;;1.05;;
46080;SDS011;31821;51.880;-0.518;2022-11-18T16:21:27;1.98;;;0.75;;
46080;SDS011;31821;51.880;-0.518;2022-11-18T16:23:54;3.17;;;0.88;;
46080;SDS011;31821;51.880;-0.518;2022-11-18T16:26:24;4.35;;;1.15;;
46080;SDS011;31821;51.880;-0.518;2022-11-18T16:28:50;3.28;;;1.20;;
46080;SDS011;31821;51.880;-0.518;2022-11-18T16:31:16;5.57;;;2.10;;
46080;SDS011;31821;51.880;-0.518;2022-11-18T16:34:04;5.88;;;2.20;;
46080;SDS011;31821;51.880;-0.518;2022-11-18T16:36:30;7.25;;;2.78;;
46080;SDS011;31821;51.880;-0.518;2022-11-18T16:38:55;6.85;;;3.00;;
46080;SDS011;31821;51.880;-0.518;2022-11-18T16:41:21;8.27;;;3.20;;
46080;SDS011;31821;51.880;-0.518;2022-11-18T16:43:55;10.10;;;5.03;;
46080;SDS011;31821;51.880;-0.518;2022-11-18T16:46:24;12.43;;;4.65;;
46080;SDS011;31821;51.880;-0.518;2022-11-18T16:48:50;9.57;;;4.22;;
46080;SDS011;31821;51.880;-0.518;2022-11-18T16:51:20;10.32;;;3.92;;
46080;SDS011;31821;51.880;-0.518;2022-11-18T16:53:50;7.68;;;3.00;;
46080;SDS011;31821;51.880;-0.518;2022-11-18T16:56:21;4.10;;;2.10;;
46080;SDS011;31821;51.880;-0.518;2022-11-18T16:58:48;6.72;;;2.20;;
46080;SDS011;31821;51.880;-0.518;2022-11-18T17:01:13;5.97;;;1.55;;
46080;SDS011;31821;51.880;-0.518;2022-11-18T17:03:40;5.95;;;1.60;;
46080;SDS011;31821;51.880;-0.518;2022-11-18T17:06:06;4.28;;;1.25;;
46080;SDS011;31821;51.880;-0.518;2022-11-18T17:08:33;3.72;;;1.00;;